createdAt,value
2019-05-17T00:00:02.071Z,8.30
2019-05-17T00:01:01.911Z,7.60
2019-05-17T00:02:01.872Z,7.60
2019-05-17T00:03:01.897Z,7.30
2019-05-17T00:04:01.887Z,8.80
2019-05-17T00:05:01.836Z,8.30
2019-05-17T00:06:01.822Z,7.60
2019-05-17T00:07:01.860Z,8.10
2019-05-17T00:08:01.800Z,8.10
2019-05-17T00:09:01.834Z,7.30
2019-05-17T00:10:01.818Z,6.60
2019-05-17T00:11:01.811Z,7.40
2019-05-17T00:12:01.752Z,7.20
2019-05-17T00:13:01.742Z,7.20
2019-05-17T00:14:01.731Z,8.00
2019-05-17T00:15:01.722Z,7.80
2019-05-17T00:16:01.749Z,7.10
2019-05-17T00:17:01.700Z,7.80
2019-05-17T00:18:01.684Z,7.20
2019-05-17T00:19:01.677Z,7.80
2019-05-17T00:20:01.667Z,8.20
2019-05-17T00:21:01.676Z,8.00
2019-05-17T00:22:01.684Z,8.40
2019-05-17T00:23:01.633Z,7.60
2019-05-17T00:24:01.616Z,9.90
2019-05-17T00:25:01.607Z,8.00
2019-05-17T00:26:01.638Z,7.00
2019-05-17T00:27:01.589Z,7.20
2019-05-17T00:28:01.572Z,8.20
2019-05-17T00:29:01.560Z,7.50
2019-05-17T00:30:01.552Z,6.60
2019-05-17T00:31:01.541Z,6.70
2019-05-17T00:32:01.569Z,6.30
2019-05-17T00:33:01.564Z,7.10
2019-05-17T00:34:01.505Z,7.10
2019-05-17T00:35:01.492Z,5.90
2019-05-17T00:36:01.488Z,6.80
2019-05-17T00:37:01.472Z,7.80
2019-05-17T00:38:01.458Z,7.00
2019-05-17T00:39:01.488Z,8.10
2019-05-17T00:40:01.438Z,7.60
2019-05-17T00:41:01.427Z,8.20
2019-05-17T00:42:01.456Z,8.10
2019-05-17T00:43:01.407Z,8.30
2019-05-17T00:44:01.436Z,7.50
2019-05-17T00:45:01.383Z,8.40
2019-05-17T00:46:01.372Z,7.80
2019-05-17T00:47:01.358Z,8.60
2019-05-17T00:48:01.347Z,7.60
2019-05-17T00:49:01.335Z,7.50
2019-05-17T00:50:01.367Z,8.10
2019-05-17T00:51:02.413Z,8.00
2019-05-17T00:52:01.299Z,7.90
2019-05-17T00:53:01.299Z,8.10
2019-05-17T00:54:01.320Z,7.40
2019-05-17T00:55:01.309Z,6.60
2019-05-17T00:56:01.302Z,7.70
2019-05-17T00:57:01.286Z,7.80
2019-05-17T00:58:01.232Z,7.70
2019-05-17T00:59:01.274Z,7.60
2019-05-17T01:00:01.250Z,7.00
2019-05-17T01:01:01.207Z,6.90
2019-05-17T01:02:01.190Z,5.80
2019-05-17T01:03:01.215Z,6.40
2019-05-17T01:04:01.164Z,6.20
2019-05-17T01:05:01.152Z,4.90
2019-05-17T01:06:01.142Z,5.60
2019-05-17T01:07:01.129Z,5.60
2019-05-17T01:08:01.122Z,5.20
2019-05-17T01:09:04.093Z,5.50
2019-05-17T01:10:01.097Z,6.00
2019-05-17T01:11:01.088Z,5.00
2019-05-17T01:12:01.073Z,6.10
2019-05-17T01:13:01.067Z,6.70
2019-05-17T01:14:01.098Z,6.40
2019-05-17T01:15:01.042Z,5.90
2019-05-17T01:16:01.034Z,6.30
2019-05-17T01:17:01.021Z,6.20
2019-05-17T01:18:01.006Z,6.40
2019-05-17T01:19:01.044Z,6.20
2019-05-17T01:20:00.987Z,5.70
2019-05-17T01:21:00.974Z,5.40
2019-05-17T01:22:01.011Z,5.50
2019-05-17T01:23:00.954Z,6.10
2019-05-17T01:24:00.937Z,5.60
2019-05-17T01:25:00.935Z,4.70
2019-05-17T01:26:00.935Z,5.50
2019-05-17T01:27:00.952Z,5.50
2019-05-17T01:28:00.894Z,6.00
2019-05-17T01:29:00.927Z,4.20
2019-05-17T01:30:00.870Z,4.50
2019-05-17T01:31:00.903Z,4.00
2019-05-17T01:32:00.849Z,4.60
2019-05-17T01:33:00.886Z,4.80
2019-05-17T01:34:00.830Z,5.40
2019-05-17T01:35:00.821Z,5.60
2019-05-17T01:36:00.802Z,5.40
2019-05-17T01:37:00.798Z,5.80
2019-05-17T01:38:00.785Z,5.40
2019-05-17T01:39:14.121Z,5.20
2019-05-17T01:40:01.803Z,5.90
2019-05-17T01:41:00.755Z,6.40
2019-05-17T01:42:00.737Z,5.30
2019-05-17T01:43:00.724Z,5.50
2019-05-17T01:44:00.717Z,5.60
2019-05-17T01:45:00.747Z,5.70
2019-05-17T01:46:00.693Z,5.20
2019-05-17T01:47:00.720Z,6.10
2019-05-17T01:48:00.670Z,5.60
2019-05-17T01:49:00.660Z,5.90
2019-05-17T01:50:00.648Z,5.40
2019-05-17T01:51:00.683Z,5.70
2019-05-17T01:52:00.623Z,6.10
2019-05-17T01:53:00.655Z,5.90
2019-05-17T01:54:00.633Z,5.80
2019-05-17T01:55:00.637Z,5.90
2019-05-17T01:56:00.580Z,5.50
2019-05-17T01:57:00.586Z,6.10
2019-05-17T01:58:00.554Z,5.70
2019-05-17T01:59:00.596Z,6.00
2019-05-17T02:00:00.554Z,6.10
2019-05-17T02:01:00.565Z,6.50
2019-05-17T02:02:00.569Z,5.70
2019-05-17T02:03:00.503Z,6.10
2019-05-17T02:04:00.532Z,6.70
2019-05-17T02:05:00.487Z,6.30
2019-05-17T02:06:00.472Z,6.40
2019-05-17T02:07:00.481Z,6.10
2019-05-17T02:08:00.455Z,6.60
2019-05-17T02:09:00.477Z,6.20
2019-05-17T02:10:00.439Z,6.10
2019-05-17T02:11:00.414Z,6.30
2019-05-17T02:12:00.410Z,6.10
2019-05-17T02:13:00.390Z,6.50
2019-05-17T02:14:00.379Z,6.20
2019-05-17T02:15:00.408Z,6.00
2019-05-17T02:16:00.355Z,6.70
2019-05-17T02:17:00.383Z,6.80
2019-05-17T02:18:00.377Z,6.80
2019-05-17T02:19:00.323Z,6.90
2019-05-17T02:20:00.311Z,7.50
2019-05-17T02:21:00.300Z,6.40
2019-05-17T02:22:00.336Z,7.40
2019-05-17T02:23:00.289Z,7.40
2019-05-17T02:24:00.313Z,7.20
2019-05-17T02:25:00.256Z,6.60
2019-05-17T02:26:00.244Z,6.70
2019-05-17T02:27:00.233Z,6.50
2019-05-17T02:28:01.527Z,5.90
2019-05-17T02:29:01.401Z,6.00
2019-05-17T02:30:02.641Z,6.10
2019-05-17T02:31:03.246Z,6.60
2019-05-17T02:32:03.542Z,6.40
2019-05-17T02:33:03.459Z,6.50
2019-05-17T02:34:02.814Z,6.90
2019-05-17T02:35:03.141Z,6.80
2019-05-17T02:36:02.832Z,6.70
2019-05-17T02:37:02.884Z,6.80
2019-05-17T02:38:02.837Z,6.80
2019-05-17T02:39:03.386Z,7.20
2019-05-17T02:40:04.634Z,7.00
2019-05-17T02:41:03.245Z,7.30
2019-05-17T02:42:02.659Z,6.80
2019-05-17T02:43:03.154Z,7.10
2019-05-17T02:44:02.326Z,7.20
2019-05-17T02:45:03.273Z,7.30
2019-05-17T02:46:03.265Z,8.10
2019-05-17T02:47:02.889Z,8.30
2019-05-17T02:48:03.275Z,7.90
2019-05-17T02:49:02.769Z,8.20
2019-05-17T02:49:59.979Z,8.00
2019-05-17T02:51:03.151Z,8.60
2019-05-17T02:52:02.931Z,7.90
2019-05-17T02:52:59.943Z,8.20
2019-05-17T02:54:03.826Z,8.20
2019-05-17T02:55:03.660Z,7.10
2019-05-17T02:56:02.978Z,7.20
2019-05-17T02:57:02.807Z,6.90
2019-05-17T02:58:02.757Z,6.90
2019-05-17T02:59:03.300Z,7.50
2019-05-17T03:00:04.046Z,7.50
2019-05-17T03:01:03.294Z,7.70
2019-05-17T03:02:03.189Z,7.70
2019-05-17T03:03:03.029Z,7.90
2019-05-17T03:03:59.823Z,7.70
2019-05-17T03:05:03.562Z,7.00
2019-05-17T03:06:02.680Z,7.40
2019-05-17T03:06:59.792Z,7.40
2019-05-17T03:08:03.597Z,7.50
2019-05-17T03:09:03.117Z,7.90
2019-05-17T03:10:16.509Z,7.90
2019-05-17T03:11:03.229Z,7.50
2019-05-17T03:12:03.012Z,7.20
2019-05-17T03:12:59.721Z,6.90
2019-05-17T03:13:59.757Z,7.70
2019-05-17T03:14:59.755Z,7.70
2019-05-17T03:16:03.048Z,7.40
2019-05-17T03:17:02.895Z,6.50
2019-05-17T03:18:03.251Z,5.90
2019-05-17T03:18:59.650Z,6.70
2019-05-17T03:19:59.642Z,7.10
2019-05-17T03:21:03.358Z,6.70
2019-05-17T03:22:04.203Z,7.30
2019-05-17T03:23:03.917Z,7.30
2019-05-17T03:24:02.861Z,6.50
2019-05-17T03:25:02.897Z,7.30
2019-05-17T03:26:03.186Z,7.40
2019-05-17T03:27:02.832Z,7.30
2019-05-17T03:28:02.562Z,6.80
2019-05-17T03:29:02.886Z,7.00
2019-05-17T03:30:03.726Z,7.40
2019-05-17T03:30:59.563Z,6.80
2019-05-17T03:32:02.457Z,7.10
2019-05-17T03:33:06.240Z,7.30
2019-05-17T03:34:05.691Z,6.30
2019-05-17T03:35:06.120Z,7.00
2019-05-17T03:36:05.389Z,7.30
2019-05-17T03:37:05.581Z,6.50
2019-05-17T03:38:03.519Z,7.20
2019-05-17T03:39:02.871Z,6.20
2019-05-17T03:40:02.714Z,6.00
2019-05-17T03:41:13.882Z,6.30
2019-05-17T03:42:02.626Z,5.60
2019-05-17T03:43:02.539Z,6.00
2019-05-17T03:44:02.909Z,5.60
2019-05-17T03:45:02.623Z,5.20
2019-05-17T03:46:02.454Z,4.40
2019-05-17T03:47:02.173Z,4.60
2019-05-17T03:47:59.329Z,4.60
2019-05-17T03:48:59.318Z,4.90
2019-05-17T03:50:02.788Z,4.50
2019-05-17T03:51:02.349Z,3.80
2019-05-17T03:52:02.480Z,4.20
2019-05-17T03:53:02.179Z,4.20
2019-05-17T03:54:02.081Z,4.40
2019-05-17T03:54:59.242Z,4.30
2019-05-17T03:56:02.659Z,4.80
2019-05-17T03:57:02.647Z,4.70
2019-05-17T03:58:02.633Z,4.80
2019-05-17T03:58:59.243Z,4.80
2019-05-17T03:59:59.192Z,4.60
2019-05-17T04:00:59.177Z,4.30
2019-05-17T04:01:59.169Z,4.40
2019-05-17T04:02:59.195Z,4.80
2019-05-17T04:04:02.555Z,4.50
2019-05-17T04:04:59.131Z,5.00
2019-05-17T04:05:59.136Z,4.80
2019-05-17T04:06:59.118Z,5.10
2019-05-17T04:07:59.152Z,4.60
2019-05-17T04:08:59.114Z,4.80
2019-05-17T04:09:59.077Z,4.70
2019-05-17T04:11:16.186Z,4.30
2019-05-17T04:12:02.742Z,4.50
2019-05-17T04:12:59.094Z,3.80
2019-05-17T04:13:59.066Z,3.90
2019-05-17T04:15:02.889Z,4.00
2019-05-17T04:15:59.013Z,4.40
2019-05-17T04:16:59.032Z,5.20
2019-05-17T04:17:58.987Z,4.80
2019-05-17T04:18:58.978Z,4.80
2019-05-17T04:20:02.590Z,4.60
2019-05-17T04:20:58.952Z,4.90
2019-05-17T04:21:58.941Z,4.70
2019-05-17T04:22:58.975Z,4.30
2019-05-17T04:23:58.957Z,3.70
2019-05-17T04:24:58.908Z,4.20
2019-05-17T04:25:58.944Z,4.90
2019-05-17T04:26:58.889Z,4.70
2019-05-17T04:27:58.914Z,4.50
2019-05-17T04:28:58.860Z,4.60
2019-05-17T04:29:58.856Z,4.60
2019-05-17T04:30:58.839Z,4.70
2019-05-17T04:31:58.821Z,4.80
2019-05-17T04:32:58.819Z,4.80
2019-05-17T04:33:58.847Z,4.20
2019-05-17T04:34:58.798Z,4.10
2019-05-17T04:35:58.785Z,4.50
2019-05-17T04:36:58.772Z,4.00
2019-05-17T04:37:58.753Z,4.50
2019-05-17T04:38:58.806Z,4.40
2019-05-17T04:39:58.780Z,4.40
2019-05-17T04:40:58.722Z,4.40
2019-05-17T04:41:58.753Z,4.70
2019-05-17T04:42:58.698Z,4.10
2019-05-17T04:43:58.686Z,4.40
2019-05-17T04:44:58.679Z,3.90
2019-05-17T04:45:58.714Z,4.20
2019-05-17T04:46:58.662Z,4.10
2019-05-17T04:47:58.774Z,4.10
2019-05-17T04:48:58.630Z,3.70
2019-05-17T04:49:58.687Z,4.10
2019-05-17T04:50:58.652Z,3.60
2019-05-17T04:51:58.599Z,3.70
2019-05-17T04:52:58.588Z,3.90
2019-05-17T04:53:58.582Z,4.10
2019-05-17T04:54:58.606Z,3.40
2019-05-17T04:55:58.566Z,3.60
2019-05-17T04:56:58.541Z,3.80
2019-05-17T04:57:58.574Z,3.70
2019-05-17T04:58:58.627Z,4.00
2019-05-17T04:59:58.510Z,3.70
2019-05-17T05:00:58.501Z,4.10
2019-05-17T05:01:58.496Z,3.80
2019-05-17T05:03:06.239Z,3.90
2019-05-17T05:03:58.471Z,3.50
2019-05-17T05:04:58.461Z,3.80
2019-05-17T05:05:58.464Z,4.00
2019-05-17T05:06:58.441Z,4.00
2019-05-17T05:07:58.422Z,3.80
2019-05-17T05:08:58.464Z,4.10
2019-05-17T05:09:58.394Z,4.00
2019-05-17T05:10:58.396Z,3.90
2019-05-17T05:12:04.728Z,3.60
2019-05-17T05:12:59.413Z,4.00
2019-05-17T05:13:58.399Z,4.20
2019-05-17T05:14:58.341Z,3.80
2019-05-17T05:15:58.348Z,4.00
2019-05-17T05:16:58.332Z,4.50
2019-05-17T05:17:58.343Z,4.10
2019-05-17T05:18:58.303Z,4.10
2019-05-17T05:19:58.333Z,3.90
2019-05-17T05:20:58.283Z,4.10
2019-05-17T05:21:58.311Z,4.00
2019-05-17T05:22:58.261Z,3.70
2019-05-17T05:23:58.288Z,3.70
2019-05-17T05:24:58.253Z,4.10
2019-05-17T05:25:58.260Z,3.50
2019-05-17T05:26:58.215Z,3.50
2019-05-17T05:27:58.228Z,4.10
2019-05-17T05:28:58.243Z,4.90
2019-05-17T05:29:58.182Z,3.50
2019-05-17T05:30:58.182Z,3.60
2019-05-17T05:31:58.185Z,4.10
2019-05-17T05:32:58.141Z,3.00
2019-05-17T05:33:58.161Z,3.10
2019-05-17T05:34:58.134Z,3.20
2019-05-17T05:35:58.259Z,3.30
2019-05-17T05:36:58.124Z,3.70
2019-05-17T05:37:58.076Z,3.40
2019-05-17T05:38:58.078Z,3.90
2019-05-17T05:39:58.104Z,3.50
2019-05-17T05:40:58.156Z,3.20
2019-05-17T05:42:06.926Z,3.30
2019-05-17T05:42:59.027Z,3.10
2019-05-17T05:43:58.013Z,3.70
2019-05-17T05:44:58.081Z,3.30
2019-05-17T05:45:58.032Z,3.20
2019-05-17T05:46:57.986Z,2.90
2019-05-17T05:47:57.989Z,2.90
2019-05-17T05:48:57.953Z,3.80
2019-05-17T05:49:58.010Z,3.30
2019-05-17T05:50:57.974Z,3.20
2019-05-17T05:51:57.937Z,3.00
2019-05-17T05:52:57.909Z,3.10
2019-05-17T05:53:58.078Z,3.10
2019-05-17T05:54:57.993Z,3.40
2019-05-17T05:55:57.914Z,3.50
2019-05-17T05:56:57.874Z,6.60
2019-05-17T05:57:57.929Z,3.60
2019-05-17T05:58:57.838Z,4.10
2019-05-17T05:59:57.888Z,3.60
2019-05-17T06:00:57.851Z,3.20
2019-05-17T06:01:57.981Z,3.80
2019-05-17T06:02:57.823Z,3.70
2019-05-17T06:03:57.874Z,4.00
2019-05-17T06:04:57.783Z,4.40
2019-05-17T06:05:57.766Z,4.30
2019-05-17T06:06:57.763Z,4.60
2019-05-17T06:07:57.795Z,4.70
2019-05-17T06:08:59.091Z,4.30
2019-05-17T06:09:57.739Z,3.90
2019-05-17T06:10:57.733Z,4.10
2019-05-17T06:11:57.778Z,4.30
2019-05-17T06:12:57.759Z,4.20
2019-05-17T06:13:57.716Z,4.10
2019-05-17T06:14:57.713Z,4.00
2019-05-17T06:15:57.686Z,3.90
2019-05-17T06:16:57.755Z,4.40
2019-05-17T06:17:57.798Z,3.70
2019-05-17T06:18:57.661Z,4.00
2019-05-17T06:19:57.666Z,4.00
2019-05-17T06:20:57.607Z,3.90
2019-05-17T06:21:57.655Z,3.90
2019-05-17T06:22:57.583Z,3.60
2019-05-17T06:23:57.596Z,3.50
2019-05-17T06:24:57.595Z,3.30
2019-05-17T06:25:57.694Z,3.10
2019-05-17T06:26:57.601Z,3.60
2019-05-17T06:27:57.592Z,3.90
2019-05-17T06:28:57.517Z,2.90
2019-05-17T06:29:57.540Z,3.00
2019-05-17T06:30:57.536Z,2.90
2019-05-17T06:31:57.480Z,2.80
2019-05-17T06:32:58.061Z,2.70
2019-05-17T06:33:57.461Z,3.00
2019-05-17T06:34:57.541Z,2.90
2019-05-17T06:35:57.468Z,4.40
2019-05-17T06:36:57.416Z,3.10
2019-05-17T06:37:57.508Z,2.90
2019-05-17T06:38:57.481Z,2.90
2019-05-17T06:39:58.165Z,3.20
2019-05-17T06:40:57.374Z,2.80
2019-05-17T06:41:57.417Z,3.10
2019-05-17T06:42:57.395Z,2.80
2019-05-17T06:43:57.593Z,3.50
2019-05-17T06:44:57.539Z,3.20
2019-05-17T06:45:57.372Z,3.20
2019-05-17T06:46:57.392Z,3.30
2019-05-17T06:47:57.309Z,3.80
2019-05-17T06:48:57.318Z,3.70
2019-05-17T06:49:57.342Z,3.40
2019-05-17T06:50:57.330Z,3.90
2019-05-17T06:51:57.323Z,3.90
2019-05-17T06:52:57.242Z,3.70
2019-05-17T06:53:57.239Z,3.40
2019-05-17T06:54:57.229Z,3.80
2019-05-17T06:55:57.203Z,3.90
2019-05-17T06:56:57.262Z,4.50
2019-05-17T06:57:57.190Z,5.30
2019-05-17T06:58:57.208Z,3.60
2019-05-17T06:59:59.287Z,3.60
2019-05-17T07:00:57.161Z,3.80
2019-05-17T07:01:57.136Z,4.20
2019-05-17T07:03:00.551Z,4.90
2019-05-17T07:03:57.343Z,4.80
2019-05-17T07:04:57.101Z,5.30
2019-05-17T07:05:57.084Z,5.30
2019-05-17T07:06:57.198Z,5.20
2019-05-17T07:07:57.076Z,3.70
2019-05-17T07:08:57.046Z,4.40
2019-05-17T07:09:57.050Z,3.90
2019-05-17T07:10:59.583Z,4.80
2019-05-17T07:11:59.549Z,4.30
2019-05-17T07:12:59.602Z,4.50
2019-05-17T07:13:57.027Z,3.90
2019-05-17T07:14:58.446Z,4.10
2019-05-17T07:15:57.069Z,6.10
2019-05-17T07:16:59.472Z,3.60
2019-05-17T07:17:57.015Z,4.50
2019-05-17T07:18:56.999Z,5.20
2019-05-17T07:19:59.522Z,4.00
2019-05-17T07:20:56.961Z,4.40
2019-05-17T07:21:57.074Z,4.00
2019-05-17T07:22:56.894Z,3.90
2019-05-17T07:23:59.258Z,3.50
2019-05-17T07:24:56.930Z,3.50
2019-05-17T07:25:56.874Z,3.50
2019-05-17T07:26:59.101Z,3.40
2019-05-17T07:27:56.863Z,3.30
2019-05-17T07:28:59.129Z,4.50
2019-05-17T07:29:59.118Z,3.60
2019-05-17T07:30:59.828Z,3.40
2019-05-17T07:31:57.244Z,3.50
2019-05-17T07:32:57.321Z,3.70
2019-05-17T07:33:59.849Z,3.20
2019-05-17T07:34:59.827Z,3.60
2019-05-17T07:35:59.499Z,4.00
2019-05-17T07:36:56.929Z,3.80
2019-05-17T07:37:59.347Z,3.50
2019-05-17T07:38:56.874Z,3.40
2019-05-17T07:40:02.063Z,3.20
2019-05-17T07:40:59.544Z,3.40
2019-05-17T07:41:56.964Z,3.60
2019-05-17T07:43:09.780Z,3.20
2019-05-17T07:43:57.750Z,3.60
2019-05-17T07:44:56.680Z,3.60
2019-05-17T07:45:56.701Z,3.70
2019-05-17T07:46:56.655Z,3.70
2019-05-17T07:47:56.721Z,3.80
2019-05-17T07:48:56.657Z,3.20
2019-05-17T07:49:56.601Z,3.70
2019-05-17T07:50:59.002Z,3.60
2019-05-17T07:51:56.696Z,3.30
2019-05-17T07:53:00.500Z,3.30
2019-05-17T07:53:56.625Z,3.30
2019-05-17T07:54:56.543Z,3.30
2019-05-17T07:55:56.530Z,3.60
2019-05-17T07:56:56.511Z,3.10
2019-05-17T07:57:56.578Z,3.40
2019-05-17T07:58:56.497Z,3.40
2019-05-17T07:59:56.491Z,3.90
2019-05-17T08:00:56.487Z,3.90
2019-05-17T08:01:56.523Z,3.40
2019-05-17T08:02:56.441Z,3.00
2019-05-17T08:03:56.545Z,2.90
2019-05-17T08:04:56.808Z,3.30
2019-05-17T08:05:56.537Z,2.80
2019-05-17T08:06:56.435Z,3.40
2019-05-17T08:07:56.430Z,2.80
2019-05-17T08:08:56.397Z,3.50
2019-05-17T08:09:56.372Z,2.70
2019-05-17T08:10:56.409Z,3.70
2019-05-17T08:11:56.439Z,3.00
2019-05-17T08:12:56.415Z,2.60
2019-05-17T08:13:56.361Z,2.60
2019-05-17T08:14:56.329Z,3.00
2019-05-17T08:15:56.346Z,3.10
2019-05-17T08:16:56.320Z,2.60
2019-05-17T08:17:59.326Z,2.30
2019-05-17T08:18:57.296Z,2.90
2019-05-17T08:19:56.261Z,3.20
2019-05-17T08:20:56.268Z,2.80
2019-05-17T08:21:56.316Z,2.90
2019-05-17T08:22:56.237Z,2.60
2019-05-17T08:23:56.300Z,2.90
2019-05-17T08:24:56.190Z,4.00
2019-05-17T08:25:56.411Z,4.60
2019-05-17T08:26:56.219Z,3.40
2019-05-17T08:27:56.155Z,2.80
2019-05-17T08:28:56.179Z,2.60
2019-05-17T08:29:56.295Z,2.70
2019-05-17T08:30:56.147Z,2.60
2019-05-17T08:31:56.220Z,3.40
2019-05-17T08:32:56.230Z,2.20
2019-05-17T08:33:56.089Z,4.90
2019-05-17T08:34:56.237Z,1.80
2019-05-17T08:35:56.085Z,3.10
2019-05-17T08:36:56.080Z,3.00
2019-05-17T08:37:56.056Z,2.30
2019-05-17T08:38:56.035Z,2.60
2019-05-17T08:39:56.089Z,2.10
2019-05-17T08:40:56.006Z,2.70
2019-05-17T08:41:56.003Z,2.50
2019-05-17T08:42:56.000Z,2.20
2019-05-17T08:43:56.029Z,2.10
2019-05-17T08:44:57.505Z,2.40
2019-05-17T08:45:58.440Z,2.00
2019-05-17T08:46:56.007Z,2.30
2019-05-17T08:47:55.987Z,2.90
2019-05-17T08:48:55.918Z,2.50
2019-05-17T08:49:56.003Z,2.00
2019-05-17T08:50:56.016Z,2.80
2019-05-17T08:51:56.108Z,2.20
2019-05-17T08:52:55.897Z,2.40
2019-05-17T08:53:56.010Z,2.10
2019-05-17T08:54:55.892Z,2.40
2019-05-17T08:55:55.932Z,2.00
2019-05-17T08:56:55.928Z,2.00
2019-05-17T08:57:56.633Z,3.00
2019-05-17T08:58:56.143Z,2.30
2019-05-17T08:59:55.925Z,4.00
2019-05-17T09:00:55.797Z,2.30
2019-05-17T09:01:55.801Z,2.30
2019-05-17T09:02:55.936Z,3.00
2019-05-17T09:03:55.841Z,3.20
2019-05-17T09:04:56.552Z,2.60
2019-05-17T09:05:55.835Z,3.10
2019-05-17T09:06:55.867Z,2.40
2019-05-17T09:07:55.801Z,2.00
2019-05-17T09:08:55.745Z,3.60
2019-05-17T09:09:55.785Z,3.10
2019-05-17T09:10:55.690Z,1.80
2019-05-17T09:11:55.691Z,3.30
2019-05-17T09:12:55.821Z,2.50
2019-05-17T09:14:01.116Z,2.30
2019-05-17T09:14:56.640Z,2.50
2019-05-17T09:15:55.911Z,3.90
2019-05-17T09:16:56.123Z,2.10
2019-05-17T09:17:55.764Z,2.50
2019-05-17T09:18:55.621Z,2.30
2019-05-17T09:19:55.634Z,2.20
2019-05-17T09:20:55.689Z,2.20
2019-05-17T09:21:55.553Z,2.50
2019-05-17T09:22:55.544Z,2.10
2019-05-17T09:23:55.573Z,1.70
2019-05-17T09:24:55.545Z,2.70
2019-05-17T09:25:55.499Z,2.20
2019-05-17T09:26:55.560Z,2.20
2019-05-17T09:27:57.072Z,2.00
2019-05-17T09:28:55.494Z,2.30
2019-05-17T09:29:55.504Z,2.40
2019-05-17T09:30:55.441Z,2.00
2019-05-17T09:31:55.598Z,2.50
2019-05-17T09:32:55.459Z,2.10
2019-05-17T09:33:55.423Z,2.50
2019-05-17T09:34:55.397Z,2.70
2019-05-17T09:35:56.230Z,2.20
2019-05-17T09:36:55.377Z,2.60
2019-05-17T09:37:55.368Z,2.40
2019-05-17T09:38:55.367Z,2.40
2019-05-17T09:39:55.567Z,2.20
2019-05-17T09:40:55.433Z,2.40
2019-05-17T09:41:55.379Z,2.60
2019-05-17T09:42:55.338Z,2.40
2019-05-17T09:44:07.751Z,2.20
2019-05-17T09:44:56.407Z,2.40
2019-05-17T09:45:55.281Z,2.20
2019-05-17T09:46:55.285Z,2.50
2019-05-17T09:47:55.273Z,2.70
2019-05-17T09:48:55.288Z,2.60
2019-05-17T09:49:55.257Z,3.70
2019-05-17T09:50:55.310Z,2.70
2019-05-17T09:51:55.218Z,3.80
2019-05-17T09:52:55.219Z,2.60
2019-05-17T09:53:55.274Z,2.80
2019-05-17T09:54:55.223Z,2.90
2019-05-17T09:55:55.172Z,2.80
2019-05-17T09:56:55.156Z,3.20
2019-05-17T09:57:55.368Z,2.90
2019-05-17T09:58:55.200Z,2.90
2019-05-17T09:59:55.991Z,2.60
2019-05-17T10:00:55.104Z,2.80
2019-05-17T10:01:55.151Z,3.10
2019-05-17T10:02:55.470Z,3.10
2019-05-17T10:03:55.386Z,2.50
2019-05-17T10:04:55.078Z,2.80
2019-05-17T10:05:55.090Z,3.40
2019-05-17T10:06:55.040Z,2.90
2019-05-17T10:07:55.093Z,3.00
2019-05-17T10:08:55.023Z,2.90
2019-05-17T10:09:55.007Z,4.10
2019-05-17T10:11:05.918Z,3.40
2019-05-17T10:11:56.181Z,3.20
2019-05-17T10:12:54.973Z,3.20
2019-05-17T10:13:54.986Z,2.80
2019-05-17T10:14:54.981Z,2.90
2019-05-17T10:15:54.977Z,4.70
2019-05-17T10:16:55.380Z,3.20
2019-05-17T10:17:54.930Z,3.30
2019-05-17T10:18:54.932Z,3.30
2019-05-17T10:19:54.897Z,3.40
2019-05-17T10:20:54.911Z,3.50
2019-05-17T10:21:54.939Z,4.30
2019-05-17T10:22:54.903Z,3.70
2019-05-17T10:23:54.855Z,3.40
2019-05-17T10:24:54.871Z,3.90
2019-05-17T10:25:54.873Z,3.90
2019-05-17T10:26:54.875Z,3.90
2019-05-17T10:27:56.379Z,4.90
2019-05-17T10:28:54.818Z,4.10
2019-05-17T10:29:54.898Z,4.50
2019-05-17T10:30:54.789Z,4.60
2019-05-17T10:31:54.768Z,6.30
2019-05-17T10:32:54.843Z,4.80
2019-05-17T10:33:54.917Z,4.70
2019-05-17T10:34:54.790Z,4.40
2019-05-17T10:35:54.756Z,4.70
2019-05-17T10:36:54.764Z,5.10
2019-05-17T10:37:54.717Z,8.20
2019-05-17T10:38:54.732Z,5.00
2019-05-17T10:39:54.694Z,4.90
2019-05-17T10:40:54.695Z,5.10
2019-05-17T10:41:54.838Z,5.90
2019-05-17T10:42:54.647Z,5.40
2019-05-17T10:43:54.650Z,10.60
2019-05-17T10:44:54.972Z,6.80
2019-05-17T10:45:54.665Z,4.60
2019-05-17T10:46:54.610Z,5.20
2019-05-17T10:47:54.590Z,4.90
2019-05-17T10:48:54.569Z,5.60
2019-05-17T10:49:54.598Z,5.10
2019-05-17T10:50:54.565Z,5.80
2019-05-17T10:51:54.947Z,5.00
2019-05-17T10:52:54.599Z,5.30
2019-05-17T10:53:54.508Z,5.20
2019-05-17T10:54:54.541Z,6.00
2019-05-17T10:55:54.577Z,5.60
2019-05-17T10:56:54.549Z,5.40
2019-05-17T10:57:54.472Z,5.40
2019-05-17T10:58:54.508Z,5.80
2019-05-17T10:59:54.476Z,5.20
2019-05-17T11:00:54.450Z,5.70
2019-05-17T11:01:54.428Z,5.50
2019-05-17T11:02:54.475Z,5.50
2019-05-17T11:03:54.465Z,5.80
2019-05-17T11:04:54.450Z,5.70
2019-05-17T11:05:54.382Z,5.30
2019-05-17T11:06:54.415Z,6.00
2019-05-17T11:07:54.433Z,6.10
2019-05-17T11:08:54.399Z,6.40
2019-05-17T11:09:54.387Z,6.10
2019-05-17T11:10:54.685Z,6.30
2019-05-17T11:11:54.336Z,6.30
2019-05-17T11:12:54.384Z,6.70
2019-05-17T11:13:54.298Z,6.60
2019-05-17T11:15:09.692Z,6.20
2019-05-17T11:15:55.281Z,6.20
2019-05-17T11:16:54.323Z,6.00
2019-05-17T11:17:54.299Z,6.20
2019-05-17T11:18:54.271Z,7.60
2019-05-17T11:19:54.255Z,6.20
2019-05-17T11:20:54.257Z,5.90
2019-05-17T11:21:54.258Z,5.80
2019-05-17T11:22:54.255Z,6.00
2019-05-17T11:23:54.614Z,5.90
2019-05-17T11:24:54.190Z,6.00
2019-05-17T11:25:54.599Z,6.00
2019-05-17T11:26:54.194Z,5.90
2019-05-17T11:27:54.153Z,6.10
2019-05-17T11:28:54.150Z,6.20
2019-05-17T11:29:54.116Z,6.00
2019-05-17T11:30:54.160Z,6.50
2019-05-17T11:31:54.439Z,6.00
2019-05-17T11:32:54.164Z,6.00
2019-05-17T11:33:54.079Z,6.00
2019-05-17T11:34:54.068Z,6.10
2019-05-17T11:35:54.041Z,6.30
2019-05-17T11:36:54.059Z,5.90
2019-05-17T11:37:54.068Z,6.30
2019-05-17T11:38:54.022Z,6.10
2019-05-17T11:39:54.053Z,6.10
2019-05-17T11:40:54.056Z,5.80
2019-05-17T11:41:53.978Z,6.40
2019-05-17T11:42:54.068Z,6.40
2019-05-17T11:43:53.984Z,5.60
2019-05-17T11:44:53.951Z,5.30
2019-05-17T11:45:53.988Z,6.00
2019-05-17T11:46:53.944Z,6.60
2019-05-17T11:47:54.030Z,6.20
2019-05-17T11:48:54.030Z,6.60
2019-05-17T11:49:53.900Z,6.20
2019-05-17T11:50:55.241Z,5.00
2019-05-17T11:51:53.879Z,5.60
2019-05-17T11:52:53.959Z,5.70
2019-05-17T11:53:53.848Z,6.40
2019-05-17T11:54:53.882Z,5.60
2019-05-17T11:55:53.826Z,7.00
2019-05-17T11:56:53.830Z,5.90
2019-05-17T11:57:53.825Z,6.00
2019-05-17T11:58:53.833Z,5.80
2019-05-17T11:59:53.777Z,5.90
2019-05-17T12:00:53.802Z,4.80
2019-05-17T12:01:53.762Z,5.90
2019-05-17T12:02:53.753Z,5.30
2019-05-17T12:03:53.841Z,5.70
2019-05-17T12:04:53.786Z,5.40
2019-05-17T12:05:53.731Z,5.70
2019-05-17T12:06:53.855Z,5.70
2019-05-17T12:07:53.700Z,6.00
2019-05-17T12:08:53.734Z,6.10
2019-05-17T12:09:53.668Z,5.80
2019-05-17T12:10:53.785Z,6.00
2019-05-17T12:11:53.652Z,6.50
2019-05-17T12:12:53.674Z,6.60
2019-05-17T12:13:53.611Z,6.90
2019-05-17T12:14:53.663Z,6.70
2019-05-17T12:15:53.657Z,6.50
2019-05-17T12:16:53.595Z,5.90
2019-05-17T12:17:53.578Z,5.70
2019-05-17T12:18:53.622Z,6.10
2019-05-17T12:19:53.554Z,6.10
2019-05-17T12:20:55.093Z,6.00
2019-05-17T12:21:55.794Z,6.30
2019-05-17T12:22:53.561Z,6.00
2019-05-17T12:23:53.521Z,6.00
2019-05-17T12:24:53.566Z,6.40
2019-05-17T12:25:53.517Z,6.30
2019-05-17T12:26:53.483Z,6.30
2019-05-17T12:27:53.451Z,6.70
2019-05-17T12:28:53.500Z,5.80
2019-05-17T12:29:53.486Z,6.40
2019-05-17T12:30:53.427Z,6.50
2019-05-17T12:31:53.557Z,6.40
2019-05-17T12:32:53.449Z,6.60
2019-05-17T12:33:53.399Z,6.60
2019-05-17T12:34:53.480Z,6.40
2019-05-17T12:35:53.374Z,6.00
2019-05-17T12:36:53.364Z,6.40
2019-05-17T12:37:53.337Z,6.30
2019-05-17T12:38:53.410Z,7.20
2019-05-17T12:39:53.372Z,6.20
2019-05-17T12:40:53.325Z,6.50
2019-05-17T12:41:53.345Z,6.90
2019-05-17T12:42:53.342Z,7.40
2019-05-17T12:43:53.292Z,6.50
2019-05-17T12:44:53.308Z,6.60
2019-05-17T12:46:00.569Z,6.60
2019-05-17T12:46:54.327Z,5.90
2019-05-17T12:47:53.247Z,6.80
2019-05-17T12:48:53.286Z,5.60
2019-05-17T12:49:53.270Z,5.90
2019-05-17T12:50:53.262Z,5.60
2019-05-17T12:51:53.194Z,7.00
2019-05-17T12:52:53.267Z,5.90
2019-05-17T12:53:53.230Z,5.50
2019-05-17T12:54:53.216Z,5.80
2019-05-17T12:55:53.216Z,5.60
2019-05-17T12:56:53.200Z,6.50
2019-05-17T12:57:53.146Z,5.70
2019-05-17T12:58:53.138Z,6.60
2019-05-17T12:59:53.167Z,6.70
2019-05-17T13:00:53.188Z,6.90
2019-05-17T13:01:53.133Z,6.80
2019-05-17T13:02:53.110Z,5.70
2019-05-17T13:03:53.110Z,6.80
2019-05-17T13:04:53.391Z,7.80
2019-05-17T13:05:53.519Z,7.20
2019-05-17T13:06:53.081Z,6.10
2019-05-17T13:07:53.030Z,6.70
2019-05-17T13:08:53.154Z,6.00
2019-05-17T13:09:53.031Z,7.10
2019-05-17T13:10:53.076Z,7.70
2019-05-17T13:11:53.138Z,7.00
2019-05-17T13:12:53.015Z,6.50
2019-05-17T13:13:53.062Z,6.70
2019-05-17T13:14:53.338Z,6.20
2019-05-17T13:15:52.932Z,6.80
2019-05-17T13:16:52.975Z,6.80
2019-05-17T13:17:52.960Z,6.40